Vancleave, Mississippi
Current Conditions -  °F | °C
As of 9:58 PM on Sunday 23 Nov 2014 (Local Time) from KBIX Reporting Station
Broken Clouds Broken Clouds  
Wind Chill: 64°   Ceiling: 1900
Heat Index: 64°   Visibility: 10mi
Dew Point: 64°   Wind: 12mph
Humidity: 100%   Direction: 210°SSW
Pressure: 29.76"   Gusts: NA
Location:  30.5758°N, 88.7489°W
Report Text: KBIX 240358Z AUTO 21010KT 10SM SCT002 BKN019 18/18 A2976 RMK AO2 SLP081
Loading
Personal Weather Stations






























Interactive Weather Map New forecast layout! Learn more

10-Day Weather Forecast

Advertisements
Track Severe Weather on mobile